createdAt,value
2018-10-18T00:00:42.661Z,20.80
2018-10-18T00:03:10.977Z,20.40
2018-10-18T00:05:39.180Z,20.00
2018-10-18T00:08:07.479Z,20.10
2018-10-18T00:10:35.683Z,20.27
2018-10-18T00:13:04.359Z,20.00
2018-10-18T00:15:32.593Z,18.93
2018-10-18T00:18:00.883Z,19.80
2018-10-18T00:20:29.085Z,19.43
2018-10-18T00:22:57.339Z,19.93
2018-10-18T00:25:25.571Z,20.07
2018-10-18T00:27:53.801Z,19.37
2018-10-18T00:30:22.038Z,21.07
2018-10-18T00:32:50.267Z,19.37
2018-10-18T00:35:18.504Z,23.37
2018-10-18T00:37:46.753Z,20.73
2018-10-18T00:40:14.993Z,20.67
2018-10-18T00:42:43.235Z,21.10
2018-10-18T00:45:11.495Z,21.23
2018-10-18T00:47:39.744Z,24.03
2018-10-18T00:50:09.443Z,20.40
2018-10-18T00:52:37.690Z,19.77
2018-10-18T00:55:06.261Z,20.43
2018-10-18T00:57:34.522Z,20.23
2018-10-18T01:00:02.986Z,19.67
2018-10-18T01:02:31.203Z,19.53
2018-10-18T02:45:23.232Z,20.67
2018-10-18T02:47:51.497Z,21.53
2018-10-18T02:50:19.856Z,20.83
2018-10-18T02:52:48.113Z,20.83
2018-10-18T02:55:16.350Z,20.83
2018-10-18T02:57:44.580Z,21.03
2018-10-18T03:00:12.859Z,23.47
2018-10-18T03:02:41.048Z,22.87
2018-10-18T03:05:09.255Z,21.87
2018-10-18T03:07:37.476Z,25.03
2018-10-18T03:10:06.536Z,21.83
2018-10-18T03:12:34.796Z,21.70
2018-10-18T03:15:03.019Z,20.83
2018-10-18T03:17:31.227Z,20.43
2018-10-18T03:19:59.440Z,18.27
2018-10-18T03:22:27.636Z,18.43
2018-10-18T03:24:55.867Z,19.17
2018-10-18T03:27:24.076Z,18.30
2018-10-18T03:29:52.303Z,20.53
2018-10-18T03:32:20.520Z,20.73
2018-10-18T03:34:48.736Z,18.87
2018-10-18T03:37:16.979Z,20.03
2018-10-18T03:39:45.208Z,21.27
2018-10-18T03:42:13.490Z,19.83
2018-10-18T03:44:41.665Z,20.40
2018-10-18T03:47:09.903Z,20.73
2018-10-18T03:49:38.219Z,20.60
2018-10-18T03:52:07.175Z,20.50
2018-10-18T03:54:35.392Z,21.83
2018-10-18T03:57:03.598Z,21.60
2018-10-18T03:59:31.855Z,21.20
2018-10-18T04:02:00.031Z,21.27
2018-10-18T04:04:28.340Z,20.77
2018-10-18T04:06:56.545Z,20.43
2018-10-18T04:09:24.776Z,19.67
2018-10-18T04:11:53.095Z,24.07
2018-10-18T04:14:21.305Z,19.33
2018-10-18T04:16:49.527Z,20.33
2018-10-18T04:19:17.746Z,20.87
2018-10-18T04:21:45.964Z,20.03
2018-10-18T04:24:14.218Z,20.53
2018-10-18T04:26:42.396Z,21.53
2018-10-18T04:29:10.623Z,22.30
2018-10-18T04:31:38.856Z,21.93
2018-10-18T04:34:07.077Z,23.73
2018-10-18T04:36:35.299Z,22.87
2018-10-18T04:39:03.908Z,23.13
2018-10-18T04:41:32.127Z,21.90
2018-10-18T04:44:00.359Z,24.30
2018-10-18T04:46:28.604Z,22.40
2018-10-18T04:48:56.898Z,22.30
2018-10-18T04:51:25.115Z,22.87
2018-10-18T04:53:53.368Z,23.13
2018-10-18T04:56:21.592Z,21.47
2018-10-18T04:58:49.827Z,24.97
2018-10-18T05:01:18.152Z,25.33
2018-10-18T05:03:46.299Z,26.47
2018-10-18T05:06:14.523Z,22.87
2018-10-18T05:08:42.828Z,23.37
2018-10-18T05:11:11.064Z,22.07
2018-10-18T05:13:39.295Z,21.87
2018-10-18T05:16:07.524Z,23.37
2018-10-18T05:18:35.747Z,21.80
2018-10-18T05:21:03.971Z,24.97
2018-10-18T05:23:32.207Z,21.33
2018-10-18T05:26:00.433Z,22.07
2018-10-18T05:28:28.677Z,23.43
2018-10-18T05:30:56.929Z,21.27
2018-10-18T05:33:25.139Z,22.80
2018-10-18T05:35:53.398Z,21.13
2018-10-18T05:38:21.611Z,20.33
2018-10-18T05:40:49.863Z,26.53
2018-10-18T05:43:18.162Z,19.87
2018-10-18T05:45:46.320Z,20.47
2018-10-18T05:48:14.549Z,20.33
2018-10-18T05:50:42.793Z,21.37
2018-10-18T05:53:11.154Z,20.23
2018-10-18T05:55:39.260Z,24.07
2018-10-18T05:58:07.485Z,21.83
2018-10-18T06:00:35.701Z,22.63
2018-10-18T06:03:03.939Z,20.30
2018-10-18T06:05:32.169Z,21.60
2018-10-18T06:08:00.491Z,23.30
2018-10-18T06:10:40.212Z,30.00
2018-10-18T06:13:08.418Z,31.13
2018-10-18T06:15:36.584Z,27.97
2018-10-18T06:18:05.047Z,27.17
2018-10-18T06:20:33.266Z,25.70
2018-10-18T06:23:01.572Z,28.40
2018-10-18T06:25:29.779Z,24.63
2018-10-18T06:27:58.008Z,27.03
2018-10-18T06:30:26.223Z,24.53
2018-10-18T06:32:54.502Z,27.43
2018-10-18T06:35:22.676Z,25.43
2018-10-18T06:37:50.888Z,22.60
2018-10-18T06:40:19.139Z,23.03
2018-10-18T06:42:47.385Z,22.23
2018-10-18T06:45:16.998Z,22.23
2018-10-18T06:47:45.418Z,23.97
2018-10-18T06:50:14.687Z,18.30
2018-10-18T06:52:42.918Z,18.57
2018-10-18T06:55:11.217Z,19.10
2018-10-18T06:57:40.236Z,20.53
2018-10-18T07:00:15.957Z,19.27
2018-10-18T07:02:44.682Z,18.27
2018-10-18T07:05:14.072Z,19.73
2018-10-18T07:07:42.780Z,22.23
2018-10-18T07:10:11.001Z,23.73
2018-10-18T07:12:39.530Z,20.83
2018-10-18T07:15:08.690Z,22.77
2018-10-18T07:17:38.163Z,20.27
2018-10-18T07:20:07.303Z,20.00
2018-10-18T07:22:35.997Z,19.80
2018-10-18T07:25:04.978Z,20.33
2018-10-18T07:27:33.188Z,18.13
2018-10-18T07:30:01.480Z,23.70
2018-10-18T07:32:29.644Z,20.93
2018-10-18T07:34:57.899Z,22.77
2018-10-18T07:37:26.092Z,19.43
2018-10-18T07:39:54.335Z,18.13
2018-10-18T07:42:22.560Z,22.50
2018-10-18T07:44:50.779Z,18.57
2018-10-18T07:47:18.987Z,16.73
2018-10-18T07:49:47.207Z,16.73
2018-10-18T07:52:15.428Z,19.07
2018-10-18T07:54:43.649Z,16.07
2018-10-18T07:57:11.861Z,15.60
2018-10-18T07:59:40.105Z,13.07
2018-10-18T08:02:08.327Z,13.67
2018-10-18T08:04:36.548Z,14.37
2018-10-18T08:07:04.968Z,14.70
2018-10-18T08:09:33.238Z,14.50
2018-10-18T08:12:01.441Z,15.73
2018-10-18T08:14:29.665Z,15.83
2018-10-18T08:16:57.940Z,14.80
2018-10-18T08:19:26.159Z,15.10
2018-10-18T08:21:54.391Z,16.33
2018-10-18T08:24:22.615Z,15.83
2018-10-18T08:26:50.845Z,16.53
2018-10-18T08:29:19.071Z,18.83
2018-10-18T08:31:47.392Z,17.00
2018-10-18T08:34:15.529Z,16.07
2018-10-18T08:36:43.756Z,16.60
2018-10-18T08:39:12.261Z,17.33
2018-10-18T08:41:40.496Z,17.13
2018-10-18T08:44:08.724Z,17.13
2018-10-18T08:46:36.958Z,18.40
2018-10-18T08:49:05.558Z,17.00
2018-10-18T08:51:33.744Z,16.60
2018-10-18T08:54:01.984Z,16.50
2018-10-18T08:56:30.240Z,17.83
2018-10-18T08:58:58.504Z,17.23
2018-10-18T09:01:26.736Z,18.80
2018-10-18T09:03:54.963Z,17.15
2018-10-18T09:06:23.204Z,20.30
2018-10-18T09:08:51.477Z,19.77
2018-10-18T09:11:19.668Z,17.30
2018-10-18T09:13:47.887Z,32.73
2018-10-18T09:16:16.116Z,18.12
2018-10-18T09:18:44.345Z,19.25
2018-10-18T09:21:12.563Z,16.45
2018-10-18T09:23:40.825Z,21.48
2018-10-18T09:26:09.095Z,20.60
2018-10-18T09:28:37.315Z,18.42
2018-10-18T09:31:05.607Z,20.95
2018-10-18T09:33:33.764Z,16.97
2018-10-18T09:36:02.078Z,20.05
2018-10-18T09:38:30.399Z,20.95
2018-10-18T09:40:58.527Z,22.00
2018-10-18T09:43:26.871Z,21.20
2018-10-18T09:45:55.094Z,20.50
2018-10-18T09:48:23.300Z,19.15
2018-10-18T09:50:51.524Z,20.15
2018-10-18T09:53:19.731Z,16.85
2018-10-18T09:55:48.090Z,22.20
2018-10-18T09:58:16.221Z,16.12
2018-10-18T10:00:49.831Z,20.25
2018-10-18T10:03:18.833Z,17.37
2018-10-18T10:05:47.060Z,19.87
2018-10-18T10:08:15.291Z,18.60
2018-10-18T10:10:43.515Z,19.27
2018-10-18T10:13:11.851Z,18.92
2018-10-18T10:15:39.958Z,19.98
2018-10-18T10:18:08.217Z,18.05
2018-10-18T10:20:36.420Z,19.35
2018-10-18T10:23:04.661Z,21.10
2018-10-18T10:25:32.879Z,23.07
2018-10-18T10:28:01.113Z,23.22
2018-10-18T10:30:29.448Z,22.82
2018-10-18T10:32:57.632Z,18.95
2018-10-18T10:35:25.813Z,21.35
2018-10-18T10:37:54.015Z,20.85
2018-10-18T10:40:22.237Z,21.77
2018-10-18T10:42:50.483Z,25.68
2018-10-18T10:45:18.769Z,28.77
2018-10-18T10:47:46.890Z,27.22
2018-10-18T10:50:15.260Z,24.32
2018-10-18T10:52:43.344Z,25.43
2018-10-18T10:55:11.671Z,28.45
2018-10-18T10:57:39.920Z,22.20
2018-10-18T11:00:08.263Z,26.93
2018-10-18T11:02:36.479Z,28.40
2018-10-18T11:05:05.719Z,24.95
2018-10-18T11:07:33.994Z,26.55
2018-10-18T11:10:02.253Z,25.52
2018-10-18T11:12:30.554Z,27.73
2018-10-18T11:14:58.739Z,23.73
2018-10-18T11:17:26.947Z,27.77
2018-10-18T11:19:55.230Z,22.27
2018-10-18T11:22:23.400Z,26.90
2018-10-18T11:24:51.822Z,29.07
2018-10-18T11:27:19.931Z,23.42
2018-10-18T11:29:48.091Z,24.30
2018-10-18T11:32:16.342Z,25.95
2018-10-18T11:34:44.536Z,23.42
2018-10-18T11:37:12.745Z,27.95
2018-10-18T11:39:40.965Z,23.87
2018-10-18T11:42:09.198Z,23.75
2018-10-18T11:44:40.027Z,20.90
2018-10-18T11:47:09.288Z,24.60
2018-10-18T11:49:37.609Z,20.80
2018-10-18T11:52:06.098Z,24.67
2018-10-18T11:54:34.317Z,26.70
2018-10-18T11:57:02.525Z,27.65
2018-10-18T11:59:30.727Z,25.97
2018-10-18T12:01:58.943Z,28.85
2018-10-18T12:04:27.412Z,22.98
2018-10-18T12:06:55.668Z,21.55
2018-10-18T12:09:23.864Z,24.45
2018-10-18T12:11:52.068Z,25.25
2018-10-18T12:14:20.292Z,25.92
2018-10-18T12:16:48.514Z,25.55
2018-10-18T12:19:16.850Z,24.57
2018-10-18T12:21:44.937Z,25.70
2018-10-18T12:24:13.136Z,24.40
2018-10-18T12:26:41.399Z,21.70
2018-10-18T12:29:09.712Z,23.57
2018-10-18T12:31:37.815Z,26.45
2018-10-18T12:34:06.037Z,29.50
2018-10-18T12:36:34.259Z,18.87
2018-10-18T12:39:02.541Z,24.10
2018-10-18T12:41:30.806Z,26.40
2018-10-18T12:43:58.931Z,25.65
2018-10-18T12:46:27.131Z,23.27
2018-10-18T12:48:55.349Z,25.68
2018-10-18T12:51:23.577Z,22.32
2018-10-18T12:53:51.803Z,23.77
2018-10-18T12:56:20.028Z,22.48
2018-10-18T12:58:48.240Z,22.07
2018-10-18T13:01:16.486Z,20.43
2018-10-18T13:03:44.702Z,18.12
2018-10-18T13:06:12.949Z,18.75
2018-10-18T13:08:41.161Z,20.40
2018-10-18T13:11:09.388Z,22.50
2018-10-18T13:13:37.599Z,24.37
2018-10-18T13:16:05.924Z,20.50
2018-10-18T13:18:34.564Z,22.80
2018-10-18T13:21:02.872Z,20.10
2018-10-18T13:23:31.080Z,26.23
2018-10-18T13:25:59.306Z,22.75
2018-10-18T13:28:27.544Z,24.52
2018-10-18T13:30:55.776Z,21.50
2018-10-18T13:33:23.992Z,24.10
2018-10-18T13:35:52.253Z,22.22
2018-10-18T13:38:20.433Z,24.20
2018-10-18T13:40:48.677Z,23.13
2018-10-18T13:43:16.914Z,24.00
2018-10-18T13:45:45.124Z,22.27
2018-10-18T13:48:13.463Z,22.57
2018-10-18T13:50:41.650Z,22.20
2018-10-18T13:53:09.852Z,23.67
2018-10-18T13:55:38.060Z,23.90
2018-10-18T13:58:06.265Z,18.93
2018-10-18T14:00:34.484Z,27.13
2018-10-18T14:03:02.699Z,23.20
2018-10-18T14:05:30.951Z,22.10
2018-10-18T14:07:59.193Z,21.63
2018-10-18T14:10:27.359Z,24.17
2018-10-18T14:12:55.547Z,21.47
2018-10-18T14:15:23.751Z,21.47
2018-10-18T14:17:52.074Z,22.03
2018-10-18T14:20:20.278Z,20.83
2018-10-18T14:22:48.402Z,20.70
2018-10-18T14:25:16.828Z,20.87
2018-10-18T14:27:45.370Z,20.67
2018-10-18T14:30:14.153Z,21.73
2018-10-18T14:32:42.510Z,22.43
2018-10-18T14:35:12.187Z,22.63
2018-10-18T14:37:40.480Z,19.37
2018-10-18T14:40:10.574Z,17.37
2018-10-18T14:42:38.959Z,20.40
2018-10-18T14:45:07.929Z,20.73
2018-10-18T14:47:36.523Z,22.20
2018-10-18T14:50:05.809Z,20.60
2018-10-18T14:52:34.109Z,19.40
2018-10-18T14:55:02.470Z,19.90
2018-10-18T14:57:30.911Z,20.47
2018-10-18T14:59:59.370Z,20.90
2018-10-18T15:02:27.668Z,17.63
2018-10-18T15:04:56.189Z,17.73
2018-10-18T15:07:24.850Z,16.93
2018-10-18T15:09:53.308Z,15.97
2018-10-18T15:12:21.610Z,19.13
2018-10-18T15:14:49.988Z,15.53
2018-10-18T15:17:18.238Z,15.13
2018-10-18T15:19:46.580Z,13.83
2018-10-18T15:22:14.919Z,16.33
2018-10-18T15:24:43.211Z,15.83
2018-10-18T15:27:11.755Z,15.23
2018-10-18T15:29:39.997Z,15.47
2018-10-18T15:32:08.431Z,15.73
2018-10-18T15:34:36.671Z,14.53
2018-10-18T15:37:05.196Z,15.57
2018-10-18T15:39:33.529Z,13.67
2018-10-18T15:42:01.859Z,14.07
2018-10-18T15:44:30.193Z,17.30
2018-10-18T15:46:58.685Z,13.77
2018-10-18T15:49:26.963Z,17.03
2018-10-18T15:51:55.311Z,14.47
2018-10-18T15:54:28.071Z,14.50
2018-10-18T15:56:56.261Z,15.20
2018-10-18T15:59:24.791Z,13.67
2018-10-18T16:01:53.043Z,13.77
2018-10-18T16:04:21.301Z,14.00
2018-10-18T16:06:49.536Z,19.23
2018-10-18T16:09:17.783Z,15.87
2018-10-18T16:11:46.059Z,19.20
2018-10-18T16:14:14.365Z,15.53
2018-10-18T16:16:42.632Z,16.43
2018-10-18T16:19:10.970Z,14.80
2018-10-18T16:21:39.289Z,15.87
2018-10-18T16:24:08.716Z,17.37
2018-10-18T16:26:37.136Z,16.33
2018-10-18T16:29:05.451Z,15.53
2018-10-18T16:31:33.698Z,21.40
2018-10-18T16:34:02.058Z,17.03
2018-10-18T16:36:30.550Z,18.60
2018-10-18T16:38:58.797Z,18.90
2018-10-18T16:41:27.423Z,17.67
2018-10-18T16:43:55.597Z,16.80
2018-10-18T16:46:23.927Z,22.30
2018-10-18T16:48:52.202Z,19.60
2018-10-18T16:51:20.459Z,19.13
2018-10-18T16:53:48.721Z,21.60
2018-10-18T16:56:16.938Z,23.97
2018-10-18T16:58:45.155Z,25.30
2018-10-18T17:01:13.380Z,27.93
2018-10-18T17:03:41.625Z,30.20
2018-10-18T17:06:09.937Z,30.90
2018-10-18T17:08:38.104Z,29.67
2018-10-18T17:11:06.335Z,29.63
2018-10-18T17:13:34.564Z,30.90
2018-10-18T17:16:02.891Z,33.90
2018-10-18T17:18:31.130Z,33.87
2018-10-18T17:20:59.360Z,34.87
2018-10-18T17:23:27.605Z,35.80
2018-10-18T17:25:55.854Z,35.63
2018-10-18T17:28:24.092Z,35.50
2018-10-18T17:30:52.377Z,35.77
2018-10-18T17:33:20.627Z,34.90
2018-10-18T17:35:49.298Z,34.90
2018-10-18T17:38:17.658Z,33.93
2018-10-18T17:40:45.886Z,34.40
2018-10-18T17:43:14.077Z,40.87
2018-10-18T17:45:42.311Z,35.40
2018-10-18T17:48:10.708Z,37.57
2018-10-18T17:50:38.896Z,36.00
2018-10-18T17:53:07.617Z,37.27
2018-10-18T17:55:37.234Z,35.37
2018-10-18T17:58:07.150Z,35.53
2018-10-18T18:00:35.532Z,38.93
2018-10-18T18:03:03.711Z,38.07
2018-10-18T18:05:32.078Z,36.43
2018-10-18T18:08:00.344Z,37.73
2018-10-18T18:10:28.587Z,36.87
2018-10-18T18:12:56.816Z,36.53
2018-10-18T18:15:25.049Z,38.50
2018-10-18T18:17:53.293Z,38.57
2018-10-18T18:20:21.519Z,39.37
2018-10-18T18:22:49.924Z,40.43
2018-10-18T18:25:18.096Z,42.73
2018-10-18T18:27:46.336Z,40.83
2018-10-18T18:30:15.402Z,41.77
2018-10-18T18:32:43.903Z,40.07
2018-10-18T18:35:12.138Z,43.10
2018-10-18T18:37:40.355Z,45.63
2018-10-18T18:40:09.475Z,41.70
2018-10-18T18:42:38.225Z,42.70
2018-10-18T18:45:12.091Z,43.07
2018-10-18T18:47:40.332Z,43.93
2018-10-18T18:50:09.048Z,44.43
2018-10-18T18:52:37.272Z,48.60
2018-10-18T18:55:06.386Z,49.10
2018-10-18T18:57:34.612Z,46.77
2018-10-18T19:00:02.863Z,47.30
2018-10-18T19:02:31.124Z,51.00
2018-10-18T19:04:59.408Z,50.00
2018-10-18T19:07:27.776Z,48.83
2018-10-18T19:09:56.093Z,47.37
2018-10-18T19:12:24.324Z,49.33
2018-10-18T19:14:52.587Z,47.63
2018-10-18T19:17:20.841Z,45.70
2018-10-18T19:19:49.095Z,47.57
2018-10-18T19:22:17.345Z,49.80
2018-10-18T19:24:45.598Z,50.77
2018-10-18T19:27:13.837Z,47.33
2018-10-18T19:29:42.090Z,51.47
2018-10-18T19:32:10.348Z,47.80
2018-10-18T19:34:38.763Z,50.97
2018-10-18T19:37:06.987Z,51.50
2018-10-18T19:39:35.223Z,51.27
2018-10-18T19:42:03.466Z,55.27
2018-10-18T19:44:31.684Z,54.53
2018-10-18T19:46:59.949Z,56.30
2018-10-18T19:49:28.226Z,54.47
2018-10-18T19:51:56.516Z,55.53
2018-10-18T19:54:24.824Z,50.93
2018-10-18T19:56:54.005Z,52.50
2018-10-18T19:59:22.277Z,51.20
2018-10-18T20:01:51.633Z,52.63
2018-10-18T20:04:19.875Z,49.20
2018-10-18T20:06:48.100Z,58.07
2018-10-18T20:09:16.361Z,56.17
2018-10-18T20:11:44.624Z,57.77
2018-10-18T20:14:12.938Z,55.20
2018-10-18T20:16:41.081Z,55.20
2018-10-18T20:19:09.356Z,53.63
2018-10-18T20:21:37.597Z,54.90
2018-10-18T20:24:06.259Z,52.37
2018-10-18T20:26:34.443Z,57.73
2018-10-18T20:29:02.657Z,57.03
2018-10-18T20:31:30.884Z,57.00
2018-10-18T20:33:59.961Z,56.63
2018-10-18T20:36:28.195Z,57.47
2018-10-18T20:38:56.439Z,58.03
2018-10-18T20:41:24.644Z,63.07
2018-10-18T20:43:52.856Z,58.87
2018-10-18T20:46:21.091Z,59.33
2018-10-18T20:48:49.299Z,61.40
2018-10-18T20:51:17.613Z,58.57
2018-10-18T20:53:45.732Z,58.00
2018-10-18T20:56:13.939Z,59.63
2018-10-18T20:58:42.165Z,63.43
2018-10-18T21:01:10.368Z,59.60
2018-10-18T21:03:38.578Z,63.43
2018-10-18T21:06:06.823Z,66.27
2018-10-18T21:08:35.014Z,72.20
2018-10-18T21:11:03.221Z,88.87
2018-10-18T21:13:31.428Z,88.83
2018-10-18T21:15:59.626Z,99.13
2018-10-18T21:18:27.821Z,90.37
2018-10-18T21:20:56.033Z,83.73
2018-10-18T21:23:24.220Z,78.03
2018-10-18T21:25:52.419Z,79.13
2018-10-18T21:28:20.632Z,75.07
2018-10-18T21:30:48.827Z,80.47
2018-10-18T21:33:17.027Z,81.87
2018-10-18T21:35:45.220Z,76.67
2018-10-18T21:38:13.420Z,73.33
2018-10-18T21:40:41.623Z,80.67
2018-10-18T21:43:10.436Z,77.43
2018-10-18T21:45:38.672Z,76.50
2018-10-18T21:48:07.140Z,79.60
2018-10-18T21:50:35.343Z,79.63
2018-10-18T21:53:03.559Z,78.50
2018-10-18T21:55:31.775Z,77.87
2018-10-18T21:58:00.016Z,78.60
2018-10-18T22:00:29.310Z,77.23
2018-10-18T22:02:57.549Z,76.80
2018-10-18T22:05:25.719Z,79.73
2018-10-18T22:07:53.927Z,81.33
2018-10-18T22:10:22.147Z,91.03
2018-10-18T22:12:50.355Z,85.30
2018-10-18T22:15:18.622Z,83.47
2018-10-18T22:17:46.827Z,85.00
2018-10-18T22:20:15.040Z,88.40
2018-10-18T22:22:43.250Z,91.87
2018-10-18T22:25:11.478Z,85.10
2018-10-18T22:27:39.691Z,89.17
2018-10-18T22:30:08.285Z,88.83
2018-10-18T22:32:36.615Z,87.37
2018-10-18T22:35:04.932Z,86.50
2018-10-18T22:37:33.079Z,82.67
2018-10-18T22:40:01.288Z,82.40
2018-10-18T22:42:29.613Z,84.47
2018-10-18T22:44:57.834Z,90.50
2018-10-18T22:47:26.040Z,82.87
2018-10-18T22:49:54.263Z,90.87
2018-10-18T22:52:22.559Z,84.03
2018-10-18T22:54:50.891Z,83.83
2018-10-18T22:57:19.113Z,82.80
2018-10-18T22:59:47.329Z,93.17
2018-10-18T23:02:15.544Z,87.07
2018-10-18T23:04:43.759Z,89.83
2018-10-18T23:07:11.976Z,90.73
2018-10-18T23:09:40.184Z,91.67
2018-10-18T23:12:08.396Z,82.37
2018-10-18T23:14:36.620Z,88.33
2018-10-18T23:17:05.070Z,86.60
2018-10-18T23:19:33.280Z,91.73
2018-10-18T23:22:05.283Z,86.57
2018-10-18T23:24:34.644Z,85.97
2018-10-18T23:27:02.864Z,78.07
2018-10-18T23:29:31.065Z,74.17
2018-10-18T23:31:59.271Z,77.50
2018-10-18T23:34:27.509Z,78.57
2018-10-18T23:36:55.723Z,76.37
2018-10-18T23:39:23.950Z,80.37
2018-10-18T23:41:52.155Z,86.70
2018-10-18T23:44:20.368Z,84.33
2018-10-18T23:46:48.583Z,83.70
2018-10-18T23:49:16.779Z,81.10
2018-10-18T23:51:45.005Z,86.33
2018-10-18T23:54:13.224Z,79.33
2018-10-18T23:56:41.434Z,86.17
2018-10-18T23:59:09.705Z,81.77
